Time;durP1;ratioP1;P1;durP2;ratioP2;P2;SDS_P1;SDS_P2;PMS_P1;PMS_P2;Temp;Humidity;BMP_temperature;BMP_pressure;BME280_temperature;BME280_humidity;BME280_pressure;Samples;Min_cycle;Max_cycle;Signal;HPM_P1;HPM_P2
2024/04/13 00:00:43;;;;;;;2.90;1.98;;;;;;;18.28;62.27;102490.25;11344482;26;20835;-57
2024/04/13 00:05:44;;;;;;;2.67;1.60;;;;;;;18.27;62.65;102485.94;11346580;26;20014;-58
2024/04/13 00:10:44;;;;;;;2.17;1.55;;;;;;;18.27;62.05;102480.56;11328957;26;20236;-57
2024/04/13 00:15:57;;;;;;;2.40;1.73;;;;;;;18.27;61.87;102471.69;11256502;26;20054;-58
2024/04/13 00:20:58;;;;;;;4.32;1.88;;;;;;;18.27;61.56;102487.81;11268425;26;20216;-58
2024/04/13 00:25:58;;;;;;;4.28;1.98;;;;;;;18.26;62.38;102476.25;11269783;26;20466;-57
2024/04/13 00:30:59;;;;;;;5.10;2.27;;;;;;;18.25;61.60;102461.22;11273956;26;20013;-57
2024/04/13 00:36:00;;;;;;;3.58;1.90;;;;;;;18.24;61.79;102466.84;11277740;26;20217;-58
2024/04/13 00:41:00;;;;;;;3.05;1.45;;;;;;;18.24;61.88;102450.72;11268732;26;20014;-57
2024/04/13 00:46:07;;;;;;;2.50;1.60;;;;;;;18.24;62.39;102456.09;11255420;26;20498;-57
2024/04/13 00:51:12;;;;;;;1.80;1.38;;;;;;;18.23;62.17;102454.44;11256169;26;20225;-57
2024/04/13 00:56:12;;;;;;;3.30;1.77;;;;;;;18.23;61.91;102447.25;11260651;26;20340;-57
2024/04/13 01:01:13;;;;;;;1.88;1.40;;;;;;;18.22;61.64;102442.09;11277002;26;20022;-57
2024/04/13 01:06:14;;;;;;;2.47;1.70;;;;;;;18.21;61.67;102433.22;11276350;26;20003;-57
2024/04/13 01:11:14;;;;;;;3.40;2.08;;;;;;;18.20;61.81;102423.56;11265506;26;20366;-57
2024/04/13 01:16:15;;;;;;;3.00;1.83;;;;;;;18.20;61.73;102423.56;11260089;26;20423;-57
2024/04/13 01:21:15;;;;;;;2.90;1.73;;;;;;;18.20;61.62;102423.56;11266765;26;20007;-57
2024/04/13 01:26:16;;;;;;;3.87;1.70;;;;;;;18.20;61.74;102425.44;11275508;26;20225;-57
2024/04/13 01:31:18;;;;;;;3.30;1.60;;;;;;;18.20;61.56;102414.69;11284023;26;20252;-57
2024/04/13 01:36:18;;;;;;;5.28;1.60;;;;;;;18.18;61.62;102411.44;11257501;26;20005;-57
2024/04/13 01:41:18;;;;;;;2.58;1.60;;;;;;;18.18;62.00;102423.00;11275002;26;20453;-57
2024/04/13 01:46:19;;;;;;;2.40;1.73;;;;;;;18.17;61.41;102416.00;11275740;26;20420;-57
2024/04/13 01:51:20;;;;;;;2.40;1.30;;;;;;;18.17;62.14;102417.88;11260936;26;20229;-57
2024/04/13 01:56:20;;;;;;;2.83;1.50;;;;;;;18.16;61.38;102409.00;11274373;26;20005;-57
2024/04/13 02:01:21;;;;;;;2.42;1.52;;;;;;;18.16;61.88;102409.00;11274627;26;20691;-57
2024/04/13 02:06:22;;;;;;;2.70;1.52;;;;;;;18.15;61.22;102410.09;11266179;26;19995;-57
2024/04/13 02:11:22;;;;;;;1.98;1.50;;;;;;;18.15;61.67;102407.41;11262372;26;19991;-57
2024/04/13 02:16:22;;;;;;;2.03;1.60;;;;;;;18.14;61.64;102415.72;11274842;26;20036;-57
2024/04/13 02:21:24;;;;;;;2.60;1.60;;;;;;;18.13;61.78;102412.22;11273412;26;20220;-57
2024/04/13 02:26:24;;;;;;;4.00;1.50;;;;;;;18.13;61.34;102404.16;11274156;26;20217;-57
2024/04/13 02:31:25;;;;;;;1.87;1.10;;;;;;;18.12;61.67;102413.28;11284389;26;20857;-57
2024/04/13 02:36:25;;;;;;;2.38;1.85;;;;;;;18.11;61.32;102417.84;11274443;26;20330;-56
2024/04/13 02:41:25;;;;;;;2.43;1.33;;;;;;;18.11;61.21;102417.00;11273179;26;20391;-57
2024/04/13 02:46:26;;;;;;;2.40;1.13;;;;;;;18.10;61.54;102415.38;11273986;26;20212;-57
2024/04/13 02:51:26;;;;;;;2.27;1.60;;;;;;;18.10;61.77;102415.38;11272955;26;19995;-57
2024/04/13 02:56:26;;;;;;;2.13;1.47;;;;;;;18.09;61.53;102416.44;11272814;26;20707;-57
2024/04/13 03:01:27;;;;;;;2.27;1.57;;;;;;;18.09;61.81;102416.44;11262910;26;20311;-57
2024/04/13 03:06:28;;;;;;;2.37;1.53;;;;;;;18.09;61.74;102408.38;11273227;26;20357;-57
2024/04/13 03:11:28;;;;;;;2.42;1.33;;;;;;;18.08;61.51;102404.09;11260677;26;20719;-58
2024/04/13 03:16:28;;;;;;;2.40;1.43;;;;;;;18.07;61.29;102402.47;11273298;26;20047;-57
2024/04/13 03:21:30;;;;;;;3.27;1.20;;;;;;;18.07;61.53;102400.59;11272875;26;20235;-57
2024/04/13 03:26:31;;;;;;;3.80;1.90;;;;;;;18.06;60.92;102409.69;11272084;26;20292;-57
2024/04/13 03:31:31;;;;;;;2.30;1.48;;;;;;;18.05;61.45;102410.78;11284206;26;20411;-57
2024/04/13 03:36:32;;;;;;;2.45;1.33;;;;;;;18.05;61.73;102408.09;11272197;26;20003;-57
2024/04/13 03:41:32;;;;;;;2.83;1.50;;;;;;;18.04;61.09;102401.09;11225834;26;20021;-56
2024/04/13 03:46:32;;;;;;;2.15;1.30;;;;;;;18.04;61.74;102408.34;11272438;26;19995;-57
2024/04/13 03:51:33;;;;;;;3.23;1.13;;;;;;;18.04;61.36;102406.47;11259483;26;19994;-57
2024/04/13 03:56:33;;;;;;;2.10;1.47;;;;;;;18.02;61.45;102405.91;11269767;26;20831;-57
2024/04/13 04:01:34;;;;;;;3.70;1.33;;;;;;;18.02;60.96;102395.16;11271707;26;20224;-56
2024/04/13 04:06:35;;;;;;;1.90;1.05;;;;;;;18.02;61.61;102397.03;11270703;26;20838;-57
2024/04/13 04:11:35;;;;;;;3.67;1.70;;;;;;;18.01;61.22;102398.91;11260984;26;20084;-57
2024/04/13 04:16:36;;;;;;;2.33;1.37;;;;;;;18.00;61.23;102397.31;11270565;26;19994;-57
2024/04/13 04:21:38;;;;;;;2.20;1.67;;;;;;;18.00;60.84;102393.81;11276459;26;20315;-57
2024/04/13 04:26:39;;;;;;;3.25;1.38;;;;;;;17.99;61.11;102382.22;11277238;26;20013;-57
2024/04/13 04:31:41;;;;;;;2.03;1.25;;;;;;;17.99;61.19;102384.09;11267073;26;20018;-57
2024/04/13 04:36:41;;;;;;;2.67;1.63;;;;;;;17.98;61.02;102396.72;11294109;26;20013;-57
2024/04/13 04:41:41;;;;;;;2.23;1.43;;;;;;;17.98;61.30;102390.53;11268273;26;20009;-57
2024/04/13 04:46:42;;;;;;;2.17;1.55;;;;;;;17.96;60.64;102393.47;11229999;26;20765;-58
2024/04/13 04:51:42;;;;;;;2.43;1.33;;;;;;;17.96;61.29;102388.09;11231235;26;20409;-57
2024/04/13 04:56:42;;;;;;;4.33;2.17;;;;;;;17.96;61.41;102392.66;11230928;26;20213;-57
2024/04/13 05:01:42;;;;;;;4.43;1.30;;;;;;;17.95;60.90;102389.16;11227645;26;20218;-57
2024/04/13 05:06:43;;;;;;;2.63;1.38;;;;;;;17.94;61.00;102392.91;11267449;26;20212;-57
2024/04/13 05:11:43;;;;;;;1.90;1.30;;;;;;;17.93;61.28;102377.88;11256509;26;20066;-58
2024/04/13 05:16:44;;;;;;;6.77;1.87;;;;;;;17.91;60.77;102371.97;11225912;26;20217;-58
2024/04/13 05:21:44;;;;;;;5.22;1.95;;;;;;;17.92;61.20;102381.63;11234906;26;20218;-58
2024/04/13 05:26:45;;;;;;;4.90;2.08;;;;;;;17.91;61.24;102387.25;11221829;26;19999;-58
2024/04/13 05:31:45;;;;;;;3.87;2.10;;;;;;;17.91;61.22;102387.25;11238880;26;19991;-58
2024/04/13 05:36:46;;;;;;;7.13;2.08;;;;;;;17.92;61.39;102389.69;11224927;26;20273;-56
2024/04/13 05:41:46;;;;;;;5.05;1.90;;;;;;;17.95;61.60;102391.03;11271354;26;20006;-58
2024/04/13 05:46:46;;;;;;;4.50;1.50;;;;;;;17.94;60.75;102382.19;11294749;26;19998;-58
2024/04/13 05:51:48;;;;;;;4.83;1.60;;;;;;;17.97;61.88;102395.09;11330719;26;20608;-57
2024/04/13 05:56:48;;;;;;;4.25;1.90;;;;;;;17.99;62.18;102390.28;11308176;26;20254;-57
2024/04/13 06:01:48;;;;;;;5.27;2.67;;;;;;;18.05;62.36;102378.56;11293375;26;20095;-57
2024/04/13 06:06:50;;;;;;;9.53;2.57;;;;;;;18.08;62.33;102380.72;11349028;26;20291;-57
2024/04/13 06:11:50;;;;;;;5.75;2.60;;;;;;;18.06;62.24;102385.53;11315247;26;20322;-57
2024/04/13 06:16:51;;;;;;;7.47;2.77;;;;;;;18.03;61.89;102385.25;11273386;26;19999;-57
2024/04/13 06:21:51;;;;;;;12.00;3.57;;;;;;;18.03;62.19;102386.06;11276729;26;20845;-57
2024/04/13 06:26:51;;;;;;;11.67;3.70;;;;;;;18.01;62.69;102390.06;11234421;26;20011;-56
2024/04/13 06:31:52;;;;;;;7.13;2.70;;;;;;;17.98;61.70;102396.72;11267928;26;20230;-57
2024/04/13 06:36:52;;;;;;;5.93;2.63;;;;;;;17.96;61.57;102398.03;11287276;26;20224;-57
2024/04/13 06:41:53;;;;;;;9.50;3.80;;;;;;;17.94;61.36;102387.56;11271173;26;20013;-57
2024/04/13 06:46:53;;;;;;;10.38;2.78;;;;;;;17.95;61.66;102386.50;11272700;26;20005;-58
2024/04/13 06:51:53;;;;;;;11.07;3.10;;;;;;;17.95;61.49;102374.94;11338366;26;20039;-57
2024/04/13 06:56:54;;;;;;;9.45;3.88;;;;;;;17.98;62.13;102379.81;11347498;26;20215;-58
2024/04/13 07:01:54;;;;;;;9.03;3.93;;;;;;;18.02;62.00;102368.34;11300011;26;19990;-56
2024/04/13 07:06:54;;;;;;;9.17;3.10;;;;;;;18.06;62.07;102365.94;11348049;26;20211;-56
2024/04/13 07:11:56;;;;;;;8.47;3.87;;;;;;;18.04;62.89;102358.16;11313112;26;20229;-56
2024/04/13 07:16:56;;;;;;;9.90;4.47;;;;;;;18.09;62.38;102358.19;11270611;26;19994;-57
2024/04/13 07:21:56;;;;;;;11.73;3.58;;;;;;;18.12;62.28;102354.22;11272298;26;20399;-57
2024/04/13 07:26:57;;;;;;;12.80;3.33;;;;;;;18.16;63.10;102360.69;11271003;26;20345;-57
2024/04/13 07:31:57;;;;;;;11.67;3.80;;;;;;;18.14;62.72;102330.59;11264337;26;20219;-58
2024/04/13 07:36:57;;;;;;;15.30;4.87;;;;;;;18.19;63.25;102335.22;11311430;26;20260;-58
2024/04/13 07:41:58;;;;;;;12.97;4.47;;;;;;;18.15;63.48;102331.41;11271936;26;20006;-56
2024/04/13 07:46:59;;;;;;;17.50;4.63;;;;;;;18.06;63.04;102328.38;11270583;26;19999;-56
2024/04/13 07:52:01;;;;;;;13.85;4.75;;;;;;;17.99;62.64;102333.91;11270345;26;20905;-56
2024/04/13 07:57:01;;;;;;;12.88;4.10;;;;;;;17.99;62.68;102335.78;11299142;26;19994;-57
2024/04/13 08:02:02;;;;;;;16.58;4.15;;;;;;;17.96;63.07;102334.44;11304658;26;20438;-52
2024/04/13 08:07:02;;;;;;;17.02;4.95;;;;;;;17.96;63.07;102317.53;11279289;26;19999;-55
2024/04/13 08:12:03;;;;;;;9.77;3.88;;;;;;;17.95;63.22;102322.06;11304489;26;19994;-57
2024/04/13 08:17:04;;;;;;;10.65;3.78;;;;;;;17.95;62.96;102332.00;11261333;26;19991;-55
2024/04/13 08:22:06;;;;;;;11.10;3.80;;;;;;;17.92;62.84;102327.97;11270437;26;19998;-56
2024/04/13 08:27:06;;;;;;;13.98;4.82;;;;;;;17.93;63.03;102326.09;11268995;26;20579;-56
2024/04/13 08:32:06;;;;;;;39.88;7.97;;;;;;;17.93;63.15;102324.22;11280561;26;20069;-56
2024/04/13 08:37:07;;;;;;;56.20;10.73;;;;;;;17.93;63.22;102313.47;11268771;26;20002;-56
2024/04/13 08:42:08;;;;;;;30.90;7.90;;;;;;;17.94;62.74;102304.34;11269019;26;20224;-56
2024/04/13 08:47:10;;;;;;;46.28;10.35;;;;;;;17.94;62.39;102296.31;11263280;26;20251;-56
2024/04/13 08:52:11;;;;;;;31.20;8.10;;;;;;;17.96;63.04;102298.72;11239420;26;20010;-55
2024/04/13 08:57:15;;;;;;;25.95;6.45;;;;;;;18.03;63.10;102294.78;11224782;26;20501;-57
2024/04/13 09:02:16;;;;;;;28.35;7.13;;;;;;;18.01;63.24;102296.13;11262321;26;20411;-57
2024/04/13 09:07:18;;;;;;;26.63;7.10;;;;;;;17.99;62.95;102288.28;11237804;26;20010;-57
2024/04/13 09:12:19;;;;;;;22.30;6.93;;;;;;;18.00;62.72;102271.16;11256919;26;20023;-56
2024/04/13 09:17:20;;;;;;;19.80;7.30;;;;;;;18.01;63.28;102272.78;11266709;26;19995;-56
2024/04/13 09:22:23;;;;;;;22.25;7.18;;;;;;;18.03;62.74;102276.00;11235174;26;19999;-56
2024/04/13 09:27:28;;;;;;;17.65;6.60;;;;;;;18.05;63.41;102265.81;11274563;26;19998;-57
2024/04/13 09:32:29;;;;;;;13.32;5.72;;;;;;;18.06;62.79;102256.72;11325032;26;19994;-57
2024/04/13 09:37:32;;;;;;;14.73;6.33;;;;;;;18.07;62.84;102252.16;11307516;26;20005;-57
2024/04/13 09:42:33;;;;;;;13.23;6.97;;;;;;;18.09;63.20;102231.22;11275241;26;20785;-57
2024/04/13 09:47:33;;;;;;;12.75;5.97;;;;;;;18.11;62.94;102224.56;11221666;26;20012;-57
2024/04/13 09:52:34;;;;;;;15.80;6.53;;;;;;;18.12;63.00;102230.72;11275338;26;20014;-56
2024/04/13 09:57:34;;;;;;;12.88;6.47;;;;;;;18.17;62.84;102227.28;11273997;26;20011;-56
2024/04/13 10:02:35;;;;;;;12.80;5.57;;;;;;;18.19;62.96;102225.94;11293289;26;20394;-56
2024/04/13 10:07:35;;;;;;;12.02;5.70;;;;;;;18.21;63.49;102220.31;11350004;26;20059;-56
2024/04/13 10:12:37;;;;;;;13.18;6.43;;;;;;;18.23;63.41;102216.34;11313591;26;19998;-57
2024/04/13 10:17:39;;;;;;;10.23;5.95;;;;;;;18.25;63.64;102206.13;11290109;26;20764;-55
2024/04/13 10:22:39;;;;;;;11.25;5.88;;;;;;;18.27;63.33;102200.50;11307706;26;20006;-55
2024/04/13 10:27:40;;;;;;;9.68;6.15;;;;;;;18.27;63.87;102195.94;11330549;26;19999;-55
2024/04/13 10:32:42;;;;;;;13.37;5.53;;;;;;;18.33;63.74;102194.09;11316627;26;20005;-56
2024/04/13 10:37:43;;;;;;;12.10;5.97;;;;;;;18.33;64.01;102189.53;11249658;26;20526;-56
2024/04/13 10:42:43;;;;;;;14.27;5.77;;;;;;;18.36;63.90;102172.94;11344874;26;20002;-57
2024/04/13 10:47:44;;;;;;;9.77;6.83;;;;;;;18.54;68.38;102170.88;11348033;26;20006;-55
2024/04/13 10:52:45;;;;;;;9.38;6.22;;;;;;;18.72;66.16;102161.63;11347113;26;20223;-54
2024/04/13 10:57:49;;;;;;;8.80;5.70;;;;;;;18.58;64.03;102153.16;11347349;26;20006;-55
2024/04/13 11:02:50;;;;;;;8.85;4.72;;;;;;;18.52;64.29;102154.22;11342702;26;20035;-55
2024/04/13 11:07:51;;;;;;;8.38;5.43;;;;;;;18.52;64.35;102138.91;11347255;26;20006;-56
2024/04/13 11:12:51;;;;;;;13.70;5.37;;;;;;;18.56;64.25;102126.56;11289812;26;20135;-55
2024/04/13 11:17:51;;;;;;;14.17;5.60;;;;;;;18.58;63.93;102126.28;11263957;26;20232;-51
2024/04/13 11:22:52;;;;;;;11.80;4.70;;;;;;;18.61;63.83;102115.06;11248273;26;20006;-55
2024/04/13 11:27:52;;;;;;;11.07;5.65;;;;;;;18.60;64.20;102100.00;11263280;26;19995;-54
2024/04/13 11:32:53;;;;;;;8.02;4.35;;;;;;;18.68;63.83;102100.31;11284034;26;20027;-54
2024/04/13 11:38:02;;;;;;;9.02;4.35;;;;;;;18.70;63.52;102083.94;11270984;26;20075;-55
2024/04/13 11:43:03;;;;;;;11.05;6.10;;;;;;;18.70;63.98;102084.75;11270117;26;20002;-55
2024/04/13 11:48:04;;;;;;;5.57;4.68;;;;;;;18.73;63.80;102074.56;11290291;26;20366;-56
2024/04/13 11:53:04;;;;;;;10.30;5.05;;;;;;;18.74;63.14;102076.97;11257240;26;19999;-56
2024/04/13 11:58:06;;;;;;;8.03;5.10;;;;;;;18.72;63.82;102056.84;11270404;26;19995;-55
2024/04/13 12:03:06;;;;;;;7.57;4.43;;;;;;;18.77;63.83;102057.63;11303936;26;20231;-56
2024/04/13 12:08:06;;;;;;;7.77;3.63;;;;;;;18.82;63.23;102046.91;11345751;26;20042;-56
2024/04/13 12:13:07;;;;;;;7.97;3.90;;;;;;;18.84;62.55;102041.28;11293570;26;20280;-56
2024/04/13 12:18:07;;;;;;;12.13;4.50;;;;;;;18.87;62.73;102048.81;11269913;26;20333;-61
2024/04/13 12:23:07;;;;;;;6.60;4.50;;;;;;;18.87;62.88;102052.31;11270696;26;19999;-56
2024/04/13 12:28:08;;;;;;;8.53;4.17;;;;;;;18.92;62.28;102036.19;11269761;26;20284;-56
2024/04/13 12:33:08;;;;;;;7.30;3.70;;;;;;;18.96;62.35;102023.03;11323319;26;19995;-56
2024/04/13 12:38:08;;;;;;;5.03;3.35;;;;;;;18.96;62.64;102007.72;11293598;26;20010;-56
2024/04/13 12:43:09;;;;;;;7.47;3.53;;;;;;;18.98;62.09;101999.38;11276467;26;20007;-56
2024/04/13 12:48:09;;;;;;;4.27;3.10;;;;;;;18.96;61.93;101994.28;11277121;26;20039;-57
2024/04/13 12:53:10;;;;;;;4.20;3.40;;;;;;;19.00;60.86;101986.47;11276226;26;21087;-56
2024/04/13 12:58:12;;;;;;;5.23;3.17;;;;;;;18.96;60.43;101969.28;11276539;26;20007;-57
2024/04/13 13:03:12;;;;;;;5.95;3.85;;;;;;;19.02;60.25;101962.00;11275466;26;19995;-54
2024/04/13 13:08:13;;;;;;;5.77;3.17;;;;;;;19.06;59.96;101963.06;11276565;26;20003;-54
2024/04/13 13:13:13;;;;;;;6.60;3.60;;;;;;;19.09;60.28;101951.81;11265233;26;20462;-55
2024/04/13 13:18:14;;;;;;;6.33;2.93;;;;;;;19.05;59.70;101951.53;11276198;26;20003;-55
2024/04/13 13:23:14;;;;;;;8.23;2.85;;;;;;;19.11;59.14;101946.97;11275540;26;20213;-55
2024/04/13 13:28:15;;;;;;;5.88;3.75;;;;;;;19.14;59.10;101938.34;11276628;26;19999;-55
2024/04/13 13:33:16;;;;;;;6.22;2.58;;;;;;;19.17;59.28;101930.53;11331638;26;20006;-54
2024/04/13 13:38:16;;;;;;;4.20;2.73;;;;;;;19.20;59.24;101930.03;11296417;26;20430;-55
2024/04/13 13:43:16;;;;;;;6.53;2.25;;;;;;;19.18;58.52;101926.81;11271951;26;20224;-56
2024/04/13 13:48:17;;;;;;;4.37;2.20;;;;;;;19.22;58.77;101919.00;11274916;26;20067;-55
2024/04/13 13:53:17;;;;;;;7.30;2.53;;;;;;;19.20;58.33;101905.84;11265244;26;20145;-56
2024/04/13 13:58:18;;;;;;;7.80;2.60;;;;;;;19.23;58.42;101893.72;11328331;26;20005;-53
2024/04/13 14:03:18;;;;;;;5.78;2.83;;;;;;;19.24;58.82;101893.44;11343575;26;20005;-55
2024/04/13 14:08:19;;;;;;;7.83;2.93;;;;;;;19.29;58.68;101871.91;11321836;26;20003;-55
2024/04/13 14:13:19;;;;;;;5.60;2.78;;;;;;;19.38;58.43;101879.44;11241504;26;20030;-56
2024/04/13 14:18:19;;;;;;;4.55;3.03;;;;;;;19.37;58.50;101869.75;11263610;26;19999;-54
2024/04/13 14:23:20;;;;;;;5.25;2.47;;;;;;;19.42;58.60;101859.81;11251925;26;20010;-55
2024/04/13 14:28:21;;;;;;;3.58;2.50;;;;;;;19.33;59.33;101842.63;11283439;26;19999;-55
2024/04/13 14:33:21;;;;;;;7.23;2.87;;;;;;;19.33;58.87;101834.53;11285941;26;19994;-54
2024/04/13 14:38:21;;;;;;;13.60;4.00;;;;;;;19.36;59.10;101827.81;11273669;26;20711;-59
2024/04/13 14:43:22;;;;;;;4.43;2.20;;;;;;;19.36;59.12;101827.81;11270205;26;20009;-55
2024/04/13 14:48:22;;;;;;;6.10;3.20;;;;;;;19.42;58.58;101826.72;11311775;26;20620;-54
2024/04/13 14:53:22;;;;;;;3.92;2.90;;;;;;;19.36;59.73;101809.78;11265482;26;20212;-54
2024/04/13 14:58:23;;;;;;;5.85;3.03;;;;;;;19.34;59.08;101800.38;11331060;26;20539;-54
2024/04/13 15:03:23;;;;;;;6.37;3.00;;;;;;;19.40;58.91;101800.06;11299529;26;20003;-55
2024/04/13 15:08:24;;;;;;;7.90;3.03;;;;;;;19.29;59.40;101785.84;11261250;26;20007;-54
2024/04/13 15:13:24;;;;;;;5.32;2.53;;;;;;;19.29;60.26;101779.69;11263704;26;20002;-53
2024/04/13 15:18:24;;;;;;;7.75;3.78;;;;;;;19.46;58.72;101768.59;11310414;26;20009;-55
2024/04/13 15:23:25;;;;;;;4.80;2.90;;;;;;;19.40;59.50;101767.81;11310824;26;20009;-55
2024/04/13 15:28:25;;;;;;;6.03;3.95;;;;;;;19.56;59.56;101766.72;11328334;26;20254;-57
2024/04/13 15:33:27;;;;;;;31.40;17.58;;;;;;;19.48;62.02;101753.78;11307952;26;19999;-57
2024/04/13 15:38:27;;;;;;;19.27;15.30;;;;;;;19.39;63.78;101752.75;11272075;26;20009;-56
2024/04/13 15:43:28;;;;;;;17.75;15.13;;;;;;;19.53;62.96;101752.94;11273568;26;20220;-53
2024/04/13 15:48:28;;;;;;;12.13;8.95;;;;;;;19.64;62.08;101749.16;11300103;26;20006;-56
2024/04/13 15:53:28;;;;;;;11.30;7.23;;;;;;;19.66;60.98;101746.22;11341398;26;20576;-56
2024/04/13 15:58:29;;;;;;;9.20;6.20;;;;;;;19.62;59.66;101735.19;11312922;26;20225;-56
2024/04/13 16:03:29;;;;;;;9.23;5.63;;;;;;;19.55;60.04;101740.09;11312821;26;20046;-56
2024/04/13 16:08:29;;;;;;;9.83;6.53;;;;;;;19.42;60.46;101736.09;11346100;26;19998;-56
2024/04/13 16:13:31;;;;;;;8.32;5.35;;;;;;;19.44;60.44;101739.28;11289283;26;20292;-56
2024/04/13 16:18:34;;;;;;;7.47;4.13;;;;;;;19.37;59.57;101729.91;11277647;26;19998;-54
2024/04/13 16:23:34;;;;;;;7.22;5.00;;;;;;;19.32;60.25;101720.00;11245918;26;20010;-56
2024/04/13 16:28:34;;;;;;;6.53;4.50;;;;;;;19.34;60.29;101714.34;11283265;26;20766;-57
2024/04/13 16:33:35;;;;;;;7.77;5.13;;;;;;;19.38;60.50;101710.00;11317084;26;20010;-57
2024/04/13 16:38:35;;;;;;;7.83;4.10;;;;;;;19.32;60.69;101705.75;11292969;26;20856;-56
2024/04/13 16:43:35;;;;;;;6.33;4.37;;;;;;;19.28;60.56;101703.59;11276154;26;20273;-56
2024/04/13 16:48:36;;;;;;;7.72;4.25;;;;;;;19.40;59.01;101708.63;11276989;26;20014;-57
2024/04/13 16:53:36;;;;;;;7.73;4.07;;;;;;;19.37;59.49;101694.94;11276739;26;20006;-56
2024/04/13 16:58:36;;;;;;;6.90;4.63;;;;;;;19.45;58.89;101691.69;11295390;26;20013;-57
2024/04/13 17:03:37;;;;;;;5.68;3.60;;;;;;;19.38;59.38;101678.53;11345883;26;20036;-56
2024/04/13 17:08:37;;;;;;;5.73;3.23;;;;;;;19.28;59.86;101676.69;11350147;26;20445;-56
2024/04/13 17:13:38;;;;;;;10.25;4.30;;;;;;;19.31;59.96;101671.88;11289281;26;20256;-56
2024/04/13 17:18:38;;;;;;;6.35;3.72;;;;;;;19.24;60.05;101672.97;11275812;26;20728;-56
2024/04/13 17:23:40;;;;;;;6.27;3.90;;;;;;;19.26;59.95;101664.59;11275881;26;20035;-57
2024/04/13 17:28:40;;;;;;;7.15;3.88;;;;;;;19.34;59.64;101660.56;11281490;26;20271;-56
2024/04/13 17:33:41;;;;;;;11.98;4.65;;;;;;;19.37;59.82;101659.97;11330234;26;19998;-56
2024/04/13 17:38:41;;;;;;;7.03;3.40;;;;;;;19.29;59.67;101658.66;11289947;26;20026;-55
2024/04/13 17:43:42;;;;;;;6.63;3.45;;;;;;;19.25;60.46;101650.38;11274199;26;20009;-57
2024/04/13 17:48:42;;;;;;;6.55;3.60;;;;;;;19.28;60.33;101649.00;11263984;26;20030;-57
2024/04/13 17:53:42;;;;;;;5.63;3.63;;;;;;;19.27;60.43;101655.47;11252218;26;19998;-56
2024/04/13 17:58:43;;;;;;;7.00;3.97;;;;;;;19.26;60.81;101649.28;11333110;26;20710;-57
2024/04/13 18:03:44;;;;;;;5.50;3.63;;;;;;;19.27;60.40;101648.19;11256900;26;20005;-57
2024/04/13 18:08:45;;;;;;;10.43;4.53;;;;;;;19.25;60.46;101641.50;11274294;26;20649;-57
2024/04/13 18:13:46;;;;;;;6.30;3.75;;;;;;;19.30;60.25;101638.78;11276776;26;19994;-56
2024/04/13 18:18:49;;;;;;;6.50;4.22;;;;;;;19.25;61.04;101638.81;11306032;26;20006;-56
2024/04/13 18:23:49;;;;;;;4.05;3.35;;;;;;;19.25;60.70;101644.19;11292945;26;20019;-56
2024/04/13 18:28:50;;;;;;;6.03;3.63;;;;;;;19.23;60.55;101638.28;11311875;26;20048;-56
2024/04/13 18:33:50;;;;;;;5.77;3.30;;;;;;;19.23;60.79;101641.78;11320086;26;20006;-57
2024/04/13 18:38:51;;;;;;;7.07;3.50;;;;;;;19.25;61.34;101641.50;11306219;26;20212;-58
2024/04/13 18:43:51;;;;;;;8.85;3.45;;;;;;;19.25;60.91;101645.00;11286508;26;19999;-57
2024/04/13 18:48:52;;;;;;;5.55;3.72;;;;;;;19.26;61.14;101649.28;11284648;26;19999;-56
2024/04/13 18:53:52;;;;;;;5.60;3.47;;;;;;;19.27;61.49;101656.25;11251896;26;20022;-56
2024/04/13 18:58:52;;;;;;;7.40;3.33;;;;;;;19.28;61.33;101657.88;11233078;26;20031;-56
2024/04/13 19:03:53;;;;;;;8.25;3.90;;;;;;;19.29;61.32;101669.44;11260585;26;20275;-56
2024/04/13 19:08:54;;;;;;;6.38;3.17;;;;;;;19.27;61.57;101664.34;11292837;26;20002;-57
2024/04/13 19:13:54;;;;;;;6.22;2.67;;;;;;;19.27;61.46;101655.47;11227532;26;19995;-56
2024/04/13 19:18:55;;;;;;;4.33;3.07;;;;;;;19.27;61.29;101661.63;11222305;26;19996;-56
2024/04/13 19:23:55;;;;;;;6.03;2.83;;;;;;;19.27;60.78;101660.84;11247279;26;20557;-56
2024/04/13 19:28:55;;;;;;;6.60;3.10;;;;;;;19.27;61.09;101664.34;11247607;26;20165;-56
2024/04/13 19:33:56;;;;;;;5.00;2.70;;;;;;;19.27;61.05;101661.63;11228296;26;20226;-57
2024/04/13 19:38:56;;;;;;;5.67;3.00;;;;;;;19.27;60.52;101664.34;11230138;26;20266;-58
2024/04/13 19:43:56;;;;;;;4.10;2.70;;;;;;;19.28;60.95;101665.94;11226523;26;20220;-57
2024/04/13 19:48:57;;;;;;;5.50;3.10;;;;;;;19.27;60.95;101656.25;11224410;26;20778;-58
2024/04/13 19:53:57;;;;;;;4.87;2.80;;;;;;;19.28;60.49;101660.56;11247961;26;20308;-58
2024/04/13 19:58:57;;;;;;;3.47;2.35;;;;;;;19.28;60.68;101673.19;11294696;26;20074;-57
2024/04/13 20:03:58;;;;;;;6.53;2.73;;;;;;;19.28;60.57;101678.56;11337876;26;20438;-58
2024/04/13 20:09:00;;;;;;;3.47;2.77;;;;;;;19.28;61.35;101683.97;11314228;26;20006;-56
2024/04/13 20:14:01;;;;;;;5.50;3.63;;;;;;;19.27;61.11;101672.41;11280759;26;19995;-57
2024/04/13 20:19:01;;;;;;;3.60;2.73;;;;;;;19.28;60.76;101668.63;11270083;26;19999;-58
2024/04/13 20:24:01;;;;;;;4.67;2.63;;;;;;;19.28;61.08;101671.31;11270302;26;20269;-57
2024/04/13 20:29:02;;;;;;;5.38;2.97;;;;;;;19.29;61.10;101664.03;11280385;26;20256;-57
2024/04/13 20:34:02;;;;;;;4.03;2.63;;;;;;;19.28;61.00;101676.69;11301879;26;20010;-57
2024/04/13 20:39:02;;;;;;;3.63;2.60;;;;;;;19.29;60.85;101675.59;11263941;26;20006;-58
2024/04/13 20:44:05;;;;;;;4.05;2.50;;;;;;;19.29;60.69;101680.97;11270140;26;20331;-58
2024/04/13 20:49:05;;;;;;;3.50;2.33;;;;;;;19.29;60.92;101680.97;11268730;26;20046;-57
2024/04/13 20:54:06;;;;;;;6.32;3.33;;;;;;;19.29;60.78;101683.66;11269426;26;20029;-57
2024/04/13 20:59:06;;;;;;;4.13;3.17;;;;;;;19.29;61.12;101683.66;11270220;26;20446;-57
2024/04/13 21:04:06;;;;;;;3.20;2.57;;;;;;;19.29;61.01;101685.56;11279603;26;20224;-57
2024/04/13 21:09:06;;;;;;;5.77;2.80;;;;;;;19.28;61.22;101687.44;11349459;26;20220;-57
2024/04/13 21:14:07;;;;;;;5.93;2.63;;;;;;;19.29;60.88;101690.94;11285298;26;20273;-57
2024/04/13 21:19:07;;;;;;;7.85;3.83;;;;;;;19.28;60.40;101687.44;11275439;26;20313;-57
2024/04/13 21:24:08;;;;;;;4.60;3.40;;;;;;;19.28;60.74;101682.06;11276330;26;19998;-57
2024/04/13 21:29:08;;;;;;;5.67;3.00;;;;;;;19.28;60.40;101679.38;11286666;26;20275;-57
2024/04/13 21:34:08;;;;;;;4.13;2.40;;;;;;;19.28;60.06;101692.81;11330915;26;20009;-57
2024/04/13 21:39:09;;;;;;;2.90;2.40;;;;;;;19.28;60.47;101692.03;11282693;26;19998;-57
2024/04/13 21:44:09;;;;;;;4.73;2.80;;;;;;;19.28;60.40;101708.16;11275569;26;20228;-57
2024/04/13 21:49:10;;;;;;;4.47;2.77;;;;;;;19.27;60.50;101707.34;11274941;26;20320;-57
2024/04/13 21:54:10;;;;;;;5.13;2.72;;;;;;;19.28;60.33;101711.66;11275047;26;20232;-57
2024/04/13 21:59:11;;;;;;;3.30;2.60;;;;;;;19.27;60.24;101704.66;11274679;26;19999;-57
2024/04/13 22:04:11;;;;;;;3.07;2.27;;;;;;;19.26;60.45;101707.63;11278348;26;20258;-57
2024/04/13 22:09:11;;;;;;;3.53;2.30;;;;;;;19.26;60.30;101726.47;11349779;26;20771;-57
2024/04/13 22:14:12;;;;;;;5.20;2.40;;;;;;;19.25;60.43;101728.34;11349303;26;20262;-57
2024/04/13 22:19:12;;;;;;;4.72;2.70;;;;;;;19.26;60.22;101742.59;11348890;26;20558;-57
2024/04/13 22:24:12;;;;;;;3.07;2.00;;;;;;;19.25;59.99;101738.28;11350014;26;20103;-57
2024/04/13 22:29:12;;;;;;;5.63;1.97;;;;;;;19.25;59.50;101746.34;11329433;26;19994;-57
2024/04/13 22:34:14;;;;;;;3.30;2.50;;;;;;;19.25;59.96;101746.34;11301509;26;20267;-58
2024/04/13 22:39:14;;;;;;;3.55;1.98;;;;;;;19.24;59.38;101750.13;11273499;26;20013;-58
2024/04/13 22:44:14;;;;;;;3.63;2.13;;;;;;;19.24;59.47;101755.50;11273964;26;19998;-57
2024/04/13 22:49:15;;;;;;;3.67;2.08;;;;;;;19.25;59.31;101759.81;11294341;26;20320;-57
2024/04/13 22:54:15;;;;;;;3.43;2.13;;;;;;;19.24;59.50;101760.88;11347191;26;19998;-58